sensor_id;sensor_type;location;lat;lon;timestamp;P1;durP1;ratioP1;P2;durP2;ratioP2
24233;SDS011;12365;43.554;1.388;2022-10-16T00:01:08;7.55;;;3.30;;
24233;SDS011;12365;43.554;1.388;2022-10-16T00:03:35;4.75;;;2.72;;
24233;SDS011;12365;43.554;1.388;2022-10-16T00:06:01;6.07;;;2.78;;
24233;SDS011;12365;43.554;1.388;2022-10-16T00:08:27;3.80;;;2.70;;
24233;SDS011;12365;43.554;1.388;2022-10-16T00:10:58;5.80;;;3.20;;
24233;SDS011;12365;43.554;1.388;2022-10-16T00:13:27;4.47;;;2.80;;
24233;SDS011;12365;43.554;1.388;2022-10-16T00:15:54;5.55;;;2.58;;
24233;SDS011;12365;43.554;1.388;2022-10-16T00:18:21;4.72;;;3.00;;
24233;SDS011;12365;43.554;1.388;2022-10-16T00:20:46;5.72;;;3.00;;
24233;SDS011;12365;43.554;1.388;2022-10-16T00:23:12;6.82;;;3.20;;
24233;SDS011;12365;43.554;1.388;2022-10-16T00:25:37;5.18;;;3.03;;
24233;SDS011;12365;43.554;1.388;2022-10-16T00:28:03;9.05;;;3.13;;
24233;SDS011;12365;43.554;1.388;2022-10-16T00:30:28;6.38;;;3.40;;
24233;SDS011;12365;43.554;1.388;2022-10-16T00:32:54;10.68;;;3.20;;
24233;SDS011;12365;43.554;1.388;2022-10-16T00:35:20;7.20;;;3.00;;
24233;SDS011;12365;43.554;1.388;2022-10-16T00:37:45;5.40;;;3.05;;
24233;SDS011;12365;43.554;1.388;2022-10-16T00:40:10;7.15;;;3.20;;
24233;SDS011;12365;43.554;1.388;2022-10-16T00:42:36;7.55;;;2.90;;
24233;SDS011;12365;43.554;1.388;2022-10-16T00:45:02;11.43;;;3.20;;
24233;SDS011;12365;43.554;1.388;2022-10-16T00:47:32;5.75;;;3.00;;
24233;SDS011;12365;43.554;1.388;2022-10-16T00:52:51;5.25;;;3.10;;
24233;SDS011;12365;43.554;1.388;2022-10-16T00:55:18;5.53;;;3.05;;
24233;SDS011;12365;43.554;1.388;2022-10-16T00:57:44;5.57;;;2.95;;
24233;SDS011;12365;43.554;1.388;2022-10-16T01:00:11;8.20;;;2.88;;
24233;SDS011;12365;43.554;1.388;2022-10-16T01:02:40;8.13;;;3.20;;
24233;SDS011;12365;43.554;1.388;2022-10-16T01:05:06;5.00;;;3.10;;
24233;SDS011;12365;43.554;1.388;2022-10-16T01:17:53;4.85;;;2.97;;
24233;SDS011;12365;43.554;1.388;2022-10-16T01:20:34;5.15;;;3.25;;
24233;SDS011;12365;43.554;1.388;2022-10-16T01:25:55;4.18;;;3.10;;
24233;SDS011;12365;43.554;1.388;2022-10-16T01:31:39;5.80;;;3.25;;
24233;SDS011;12365;43.554;1.388;2022-10-16T01:34:10;5.50;;;3.47;;
24233;SDS011;12365;43.554;1.388;2022-10-16T01:36:47;6.15;;;3.58;;
24233;SDS011;12365;43.554;1.388;2022-10-16T01:39:16;7.10;;;3.20;;
24233;SDS011;12365;43.554;1.388;2022-10-16T01:41:51;5.73;;;3.30;;
24233;SDS011;12365;43.554;1.388;2022-10-16T01:44:23;5.80;;;3.30;;
24233;SDS011;12365;43.554;1.388;2022-10-16T01:46:53;6.15;;;3.05;;
24233;SDS011;12365;43.554;1.388;2022-10-16T01:49:20;8.05;;;3.28;;
24233;SDS011;12365;43.554;1.388;2022-10-16T01:51:48;5.75;;;3.53;;
24233;SDS011;12365;43.554;1.388;2022-10-16T01:54:17;6.45;;;3.30;;
24233;SDS011;12365;43.554;1.388;2022-10-16T01:56:45;8.73;;;3.47;;
24233;SDS011;12365;43.554;1.388;2022-10-16T01:59:13;8.13;;;3.40;;
24233;SDS011;12365;43.554;1.388;2022-10-16T02:01:42;7.20;;;3.60;;
24233;SDS011;12365;43.554;1.388;2022-10-16T02:04:17;8.80;;;3.65;;
24233;SDS011;12365;43.554;1.388;2022-10-16T02:06:47;5.88;;;3.47;;
24233;SDS011;12365;43.554;1.388;2022-10-16T02:09:13;5.97;;;3.42;;
24233;SDS011;12365;43.554;1.388;2022-10-16T02:11:41;7.13;;;3.47;;
24233;SDS011;12365;43.554;1.388;2022-10-16T02:14:07;6.07;;;3.40;;
24233;SDS011;12365;43.554;1.388;2022-10-16T02:16:37;8.77;;;3.90;;
24233;SDS011;12365;43.554;1.388;2022-10-16T02:19:07;5.32;;;3.53;;
24233;SDS011;12365;43.554;1.388;2022-10-16T02:21:36;6.03;;;3.90;;
24233;SDS011;12365;43.554;1.388;2022-10-16T02:26:49;8.38;;;4.10;;
24233;SDS011;12365;43.554;1.388;2022-10-16T02:29:29;6.75;;;4.05;;
24233;SDS011;12365;43.554;1.388;2022-10-16T02:31:57;6.30;;;3.83;;
24233;SDS011;12365;43.554;1.388;2022-10-16T02:34:25;11.63;;;4.28;;
24233;SDS011;12365;43.554;1.388;2022-10-16T02:36:54;7.78;;;4.10;;
24233;SDS011;12365;43.554;1.388;2022-10-16T02:39:22;9.82;;;4.57;;
24233;SDS011;12365;43.554;1.388;2022-10-16T02:41:48;6.88;;;4.38;;
24233;SDS011;12365;43.554;1.388;2022-10-16T02:44:13;7.30;;;4.10;;
24233;SDS011;12365;43.554;1.388;2022-10-16T02:46:39;8.27;;;4.20;;
24233;SDS011;12365;43.554;1.388;2022-10-16T02:49:04;9.15;;;4.15;;
24233;SDS011;12365;43.554;1.388;2022-10-16T02:51:29;9.35;;;4.35;;
24233;SDS011;12365;43.554;1.388;2022-10-16T02:53:55;8.30;;;4.30;;
24233;SDS011;12365;43.554;1.388;2022-10-16T02:56:20;8.23;;;4.40;;
24233;SDS011;12365;43.554;1.388;2022-10-16T02:58:46;8.68;;;4.35;;
24233;SDS011;12365;43.554;1.388;2022-10-16T03:01:11;6.10;;;4.13;;
24233;SDS011;12365;43.554;1.388;2022-10-16T03:03:37;6.80;;;4.00;;
24233;SDS011;12365;43.554;1.388;2022-10-16T03:06:03;8.90;;;4.43;;
24233;SDS011;12365;43.554;1.388;2022-10-16T03:08:29;7.25;;;4.10;;
24233;SDS011;12365;43.554;1.388;2022-10-16T03:10:54;10.68;;;4.65;;
24233;SDS011;12365;43.554;1.388;2022-10-16T03:13:20;10.10;;;4.45;;
24233;SDS011;12365;43.554;1.388;2022-10-16T03:15:45;7.60;;;4.32;;
24233;SDS011;12365;43.554;1.388;2022-10-16T03:18:11;8.25;;;4.72;;
24233;SDS011;12365;43.554;1.388;2022-10-16T03:20:37;8.30;;;4.30;;
24233;SDS011;12365;43.554;1.388;2022-10-16T03:23:02;8.85;;;4.22;;
24233;SDS011;12365;43.554;1.388;2022-10-16T03:25:28;9.23;;;4.50;;
24233;SDS011;12365;43.554;1.388;2022-10-16T03:27:53;8.93;;;4.43;;
24233;SDS011;12365;43.554;1.388;2022-10-16T03:30:18;8.02;;;4.25;;
24233;SDS011;12365;43.554;1.388;2022-10-16T03:32:44;9.35;;;4.60;;
24233;SDS011;12365;43.554;1.388;2022-10-16T03:35:10;9.70;;;4.30;;
24233;SDS011;12365;43.554;1.388;2022-10-16T03:37:35;7.00;;;4.35;;
24233;SDS011;12365;43.554;1.388;2022-10-16T03:40:01;8.25;;;4.40;;
24233;SDS011;12365;43.554;1.388;2022-10-16T03:42:27;7.13;;;4.10;;
24233;SDS011;12365;43.554;1.388;2022-10-16T03:44:53;7.60;;;4.32;;
24233;SDS011;12365;43.554;1.388;2022-10-16T03:47:18;7.13;;;4.30;;
24233;SDS011;12365;43.554;1.388;2022-10-16T03:49:46;7.93;;;4.22;;
24233;SDS011;12365;43.554;1.388;2022-10-16T03:52:12;8.23;;;4.50;;
24233;SDS011;12365;43.554;1.388;2022-10-16T03:54:38;7.93;;;4.30;;
24233;SDS011;12365;43.554;1.388;2022-10-16T03:57:03;10.38;;;4.50;;
24233;SDS011;12365;43.554;1.388;2022-10-16T03:59:28;8.30;;;4.07;;
24233;SDS011;12365;43.554;1.388;2022-10-16T04:01:54;7.43;;;4.30;;
24233;SDS011;12365;43.554;1.388;2022-10-16T04:04:19;7.82;;;4.47;;
24233;SDS011;12365;43.554;1.388;2022-10-16T04:06:44;10.77;;;4.50;;
24233;SDS011;12365;43.554;1.388;2022-10-16T04:09:10;12.43;;;4.70;;
24233;SDS011;12365;43.554;1.388;2022-10-16T04:11:35;9.75;;;4.10;;
24233;SDS011;12365;43.554;1.388;2022-10-16T04:14:01;8.05;;;4.30;;
24233;SDS011;12365;43.554;1.388;2022-10-16T04:16:26;7.80;;;4.07;;
24233;SDS011;12365;43.554;1.388;2022-10-16T04:18:51;10.35;;;4.38;;
24233;SDS011;12365;43.554;1.388;2022-10-16T04:21:17;7.53;;;4.43;;
24233;SDS011;12365;43.554;1.388;2022-10-16T04:23:42;10.13;;;4.78;;
24233;SDS011;12365;43.554;1.388;2022-10-16T04:26:08;11.85;;;4.68;;
24233;SDS011;12365;43.554;1.388;2022-10-16T04:28:33;8.93;;;4.55;;
24233;SDS011;12365;43.554;1.388;2022-10-16T04:30:59;9.40;;;4.57;;
24233;SDS011;12365;43.554;1.388;2022-10-16T04:33:24;9.65;;;4.40;;
24233;SDS011;12365;43.554;1.388;2022-10-16T04:35:55;8.15;;;4.68;;
24233;SDS011;12365;43.554;1.388;2022-10-16T04:38:21;9.40;;;4.18;;
24233;SDS011;12365;43.554;1.388;2022-10-16T04:40:47;9.20;;;4.25;;
24233;SDS011;12365;43.554;1.388;2022-10-16T04:43:12;12.57;;;4.70;;
24233;SDS011;12365;43.554;1.388;2022-10-16T04:45:37;10.25;;;4.57;;
24233;SDS011;12365;43.554;1.388;2022-10-16T04:48:03;7.85;;;4.60;;
24233;SDS011;12365;43.554;1.388;2022-10-16T04:50:28;7.32;;;4.30;;
24233;SDS011;12365;43.554;1.388;2022-10-16T04:52:54;8.88;;;4.28;;
24233;SDS011;12365;43.554;1.388;2022-10-16T04:55:19;9.75;;;4.15;;
24233;SDS011;12365;43.554;1.388;2022-10-16T04:57:45;9.75;;;4.10;;
24233;SDS011;12365;43.554;1.388;2022-10-16T05:00:10;8.82;;;4.50;;
24233;SDS011;12365;43.554;1.388;2022-10-16T05:02:36;10.30;;;4.38;;
24233;SDS011;12365;43.554;1.388;2022-10-16T05:05:01;8.38;;;4.22;;
24233;SDS011;12365;43.554;1.388;2022-10-16T05:07:27;8.27;;;4.20;;
24233;SDS011;12365;43.554;1.388;2022-10-16T05:09:52;13.23;;;4.80;;
24233;SDS011;12365;43.554;1.388;2022-10-16T05:12:18;10.00;;;4.72;;
24233;SDS011;12365;43.554;1.388;2022-10-16T05:14:43;6.93;;;4.25;;
24233;SDS011;12365;43.554;1.388;2022-10-16T05:17:09;10.48;;;4.35;;
24233;SDS011;12365;43.554;1.388;2022-10-16T05:19:34;8.60;;;4.20;;
24233;SDS011;12365;43.554;1.388;2022-10-16T05:22:00;10.95;;;4.20;;
24233;SDS011;12365;43.554;1.388;2022-10-16T05:24:25;13.32;;;4.50;;
24233;SDS011;12365;43.554;1.388;2022-10-16T05:26:50;9.15;;;4.10;;
24233;SDS011;12365;43.554;1.388;2022-10-16T05:29:16;11.73;;;4.53;;
24233;SDS011;12365;43.554;1.388;2022-10-16T05:31:42;9.45;;;4.43;;
24233;SDS011;12365;43.554;1.388;2022-10-16T05:34:07;9.35;;;4.32;;
24233;SDS011;12365;43.554;1.388;2022-10-16T05:36:32;9.10;;;4.50;;
24233;SDS011;12365;43.554;1.388;2022-10-16T05:38:58;11.02;;;4.75;;
24233;SDS011;12365;43.554;1.388;2022-10-16T05:41:23;11.00;;;4.32;;
24233;SDS011;12365;43.554;1.388;2022-10-16T05:43:50;12.80;;;4.63;;
24233;SDS011;12365;43.554;1.388;2022-10-16T05:46:16;11.80;;;4.60;;
24233;SDS011;12365;43.554;1.388;2022-10-16T05:48:42;8.88;;;4.43;;
24233;SDS011;12365;43.554;1.388;2022-10-16T05:51:09;13.52;;;4.53;;
24233;SDS011;12365;43.554;1.388;2022-10-16T05:53:36;9.00;;;4.70;;
24233;SDS011;12365;43.554;1.388;2022-10-16T05:56:03;11.50;;;4.70;;
24233;SDS011;12365;43.554;1.388;2022-10-16T05:58:30;10.02;;;4.53;;
24233;SDS011;12365;43.554;1.388;2022-10-16T06:01:05;12.15;;;4.68;;
24233;SDS011;12365;43.554;1.388;2022-10-16T06:03:34;10.55;;;4.97;;
24233;SDS011;12365;43.554;1.388;2022-10-16T06:06:06;11.43;;;4.90;;
24233;SDS011;12365;43.554;1.388;2022-10-16T06:08:43;9.90;;;4.50;;
24233;SDS011;12365;43.554;1.388;2022-10-16T06:11:17;7.82;;;3.90;;
24233;SDS011;12365;43.554;1.388;2022-10-16T06:13:53;12.07;;;4.78;;
24233;SDS011;12365;43.554;1.388;2022-10-16T06:16:21;9.52;;;5.10;;
24233;SDS011;12365;43.554;1.388;2022-10-16T06:18:50;9.73;;;4.53;;
24233;SDS011;12365;43.554;1.388;2022-10-16T06:21:17;12.38;;;4.70;;
24233;SDS011;12365;43.554;1.388;2022-10-16T06:23:45;11.70;;;4.72;;
24233;SDS011;12365;43.554;1.388;2022-10-16T06:26:14;8.60;;;4.85;;
24233;SDS011;12365;43.554;1.388;2022-10-16T06:28:41;9.55;;;4.70;;
24233;SDS011;12365;43.554;1.388;2022-10-16T06:31:08;9.20;;;4.45;;
24233;SDS011;12365;43.554;1.388;2022-10-16T06:33:36;12.15;;;4.75;;
24233;SDS011;12365;43.554;1.388;2022-10-16T06:36:03;10.57;;;4.60;;
24233;SDS011;12365;43.554;1.388;2022-10-16T06:38:37;10.27;;;4.78;;
24233;SDS011;12365;43.554;1.388;2022-10-16T06:41:03;10.27;;;4.57;;
24233;SDS011;12365;43.554;1.388;2022-10-16T06:43:30;15.18;;;4.78;;
24233;SDS011;12365;43.554;1.388;2022-10-16T06:45:57;9.90;;;4.85;;
24233;SDS011;12365;43.554;1.388;2022-10-16T06:48:23;10.73;;;5.28;;
24233;SDS011;12365;43.554;1.388;2022-10-16T06:51:01;9.98;;;4.45;;
24233;SDS011;12365;43.554;1.388;2022-10-16T06:53:29;9.15;;;4.53;;
24233;SDS011;12365;43.554;1.388;2022-10-16T06:55:56;10.48;;;4.50;;
24233;SDS011;12365;43.554;1.388;2022-10-16T06:58:22;11.15;;;5.10;;
24233;SDS011;12365;43.554;1.388;2022-10-16T07:00:48;12.75;;;5.15;;
24233;SDS011;12365;43.554;1.388;2022-10-16T07:03:14;10.68;;;4.90;;
24233;SDS011;12365;43.554;1.388;2022-10-16T07:05:42;10.52;;;4.63;;
24233;SDS011;12365;43.554;1.388;2022-10-16T07:08:08;10.82;;;4.57;;
24233;SDS011;12365;43.554;1.388;2022-10-16T07:10:34;9.68;;;4.55;;
24233;SDS011;12365;43.554;1.388;2022-10-16T07:13:00;7.68;;;4.28;;
24233;SDS011;12365;43.554;1.388;2022-10-16T07:15:26;8.70;;;4.28;;
24233;SDS011;12365;43.554;1.388;2022-10-16T07:17:52;8.05;;;4.10;;
24233;SDS011;12365;43.554;1.388;2022-10-16T07:20:18;10.05;;;4.30;;
24233;SDS011;12365;43.554;1.388;2022-10-16T07:22:44;10.98;;;4.40;;
24233;SDS011;12365;43.554;1.388;2022-10-16T07:25:09;7.88;;;4.55;;
24233;SDS011;12365;43.554;1.388;2022-10-16T07:27:36;10.10;;;4.22;;
24233;SDS011;12365;43.554;1.388;2022-10-16T07:30:02;8.73;;;3.85;;
24233;SDS011;12365;43.554;1.388;2022-10-16T07:32:28;8.45;;;4.07;;
24233;SDS011;12365;43.554;1.388;2022-10-16T07:34:53;8.45;;;4.20;;
24233;SDS011;12365;43.554;1.388;2022-10-16T07:37:20;5.80;;;3.80;;
24233;SDS011;12365;43.554;1.388;2022-10-16T07:39:46;8.65;;;4.05;;
24233;SDS011;12365;43.554;1.388;2022-10-16T07:42:12;8.45;;;3.65;;
24233;SDS011;12365;43.554;1.388;2022-10-16T07:44:37;10.05;;;4.20;;
24233;SDS011;12365;43.554;1.388;2022-10-16T07:47:02;6.88;;;3.83;;
24233;SDS011;12365;43.554;1.388;2022-10-16T07:49:28;5.88;;;3.70;;
24233;SDS011;12365;43.554;1.388;2022-10-16T07:51:53;7.80;;;4.03;;
24233;SDS011;12365;43.554;1.388;2022-10-16T07:54:18;7.47;;;4.00;;
24233;SDS011;12365;43.554;1.388;2022-10-16T07:56:44;7.43;;;3.67;;
24233;SDS011;12365;43.554;1.388;2022-10-16T07:59:09;6.30;;;3.50;;
24233;SDS011;12365;43.554;1.388;2022-10-16T08:01:35;6.70;;;3.40;;
24233;SDS011;12365;43.554;1.388;2022-10-16T08:04:00;8.48;;;3.30;;
24233;SDS011;12365;43.554;1.388;2022-10-16T08:06:25;5.80;;;3.25;;
24233;SDS011;12365;43.554;1.388;2022-10-16T08:08:51;6.20;;;3.22;;
24233;SDS011;12365;43.554;1.388;2022-10-16T08:11:17;9.38;;;3.45;;
24233;SDS011;12365;43.554;1.388;2022-10-16T08:13:42;6.75;;;3.45;;
24233;SDS011;12365;43.554;1.388;2022-10-16T08:16:07;6.65;;;3.33;;
24233;SDS011;12365;43.554;1.388;2022-10-16T08:18:35;7.65;;;3.10;;
24233;SDS011;12365;43.554;1.388;2022-10-16T08:21:01;6.93;;;3.33;;
24233;SDS011;12365;43.554;1.388;2022-10-16T08:23:27;5.13;;;3.25;;
24233;SDS011;12365;43.554;1.388;2022-10-16T08:25:53;7.10;;;3.53;;
24233;SDS011;12365;43.554;1.388;2022-10-16T08:28:19;7.15;;;3.30;;
24233;SDS011;12365;43.554;1.388;2022-10-16T08:30:45;6.13;;;3.20;;
24233;SDS011;12365;43.554;1.388;2022-10-16T08:33:11;7.85;;;3.60;;
24233;SDS011;12365;43.554;1.388;2022-10-16T08:35:36;7.75;;;3.70;;
24233;SDS011;12365;43.554;1.388;2022-10-16T08:38:05;6.28;;;3.60;;
24233;SDS011;12365;43.554;1.388;2022-10-16T08:40:32;6.95;;;3.40;;
24233;SDS011;12365;43.554;1.388;2022-10-16T08:51:33;6.68;;;3.30;;
24233;SDS011;12365;43.554;1.388;2022-10-16T08:54:02;7.05;;;3.55;;
24233;SDS011;12365;43.554;1.388;2022-10-16T08:56:29;7.10;;;3.42;;
24233;SDS011;12365;43.554;1.388;2022-10-16T08:58:57;10.65;;;3.83;;
24233;SDS011;12365;43.554;1.388;2022-10-16T09:01:23;11.02;;;4.10;;
24233;SDS011;12365;43.554;1.388;2022-10-16T09:17:32;8.67;;;3.83;;
24233;SDS011;12365;43.554;1.388;2022-10-16T09:20:47;6.40;;;3.33;;
24233;SDS011;12365;43.554;1.388;2022-10-16T09:25:26;9.63;;;3.55;;
24233;SDS011;12365;43.554;1.388;2022-10-16T09:27:53;8.93;;;3.30;;
24233;SDS011;12365;43.554;1.388;2022-10-16T09:30:20;7.13;;;3.15;;
24233;SDS011;12365;43.554;1.388;2022-10-16T09:32:47;7.88;;;3.30;;
24233;SDS011;12365;43.554;1.388;2022-10-16T09:35:16;8.00;;;3.22;;
24233;SDS011;12365;43.554;1.388;2022-10-16T09:37:45;8.25;;;3.42;;
24233;SDS011;12365;43.554;1.388;2022-10-16T09:40:25;9.57;;;3.40;;
24233;SDS011;12365;43.554;1.388;2022-10-16T09:42:57;13.27;;;3.10;;
24233;SDS011;12365;43.554;1.388;2022-10-16T09:45:27;5.95;;;3.03;;
24233;SDS011;12365;43.554;1.388;2022-10-16T09:47:53;7.47;;;3.15;;
24233;SDS011;12365;43.554;1.388;2022-10-16T09:50:22;7.30;;;3.00;;
24233;SDS011;12365;43.554;1.388;2022-10-16T09:52:51;7.50;;;2.80;;
24233;SDS011;12365;43.554;1.388;2022-10-16T09:55:30;8.20;;;3.03;;
24233;SDS011;12365;43.554;1.388;2022-10-16T09:57:56;8.63;;;3.00;;
24233;SDS011;12365;43.554;1.388;2022-10-16T10:00:22;7.07;;;2.63;;
24233;SDS011;12365;43.554;1.388;2022-10-16T10:02:48;6.72;;;2.72;;
24233;SDS011;12365;43.554;1.388;2022-10-16T10:05:27;8.77;;;3.10;;
24233;SDS011;12365;43.554;1.388;2022-10-16T10:07:55;10.07;;;2.70;;
24233;SDS011;12365;43.554;1.388;2022-10-16T10:10:29;9.18;;;2.83;;
24233;SDS011;12365;43.554;1.388;2022-10-16T10:12:57;9.13;;;2.80;;
24233;SDS011;12365;43.554;1.388;2022-10-16T10:15:23;6.90;;;2.67;;
24233;SDS011;12365;43.554;1.388;2022-10-16T10:17:58;10.35;;;3.05;;
24233;SDS011;12365;43.554;1.388;2022-10-16T10:20:31;6.20;;;2.65;;
24233;SDS011;12365;43.554;1.388;2022-10-16T10:26:15;12.10;;;3.03;;
24233;SDS011;12365;43.554;1.388;2022-10-16T10:31:32;5.15;;;2.20;;
24233;SDS011;12365;43.554;1.388;2022-10-16T10:34:11;8.00;;;2.40;;
24233;SDS011;12365;43.554;1.388;2022-10-16T10:36:41;7.05;;;2.70;;
24233;SDS011;12365;43.554;1.388;2022-10-16T10:39:22;7.45;;;2.58;;
24233;SDS011;12365;43.554;1.388;2022-10-16T10:47:39;5.78;;;2.58;;
24233;SDS011;12365;43.554;1.388;2022-10-16T10:55:27;10.48;;;2.60;;
24233;SDS011;12365;43.554;1.388;2022-10-16T10:58:15;4.70;;;2.33;;
24233;SDS011;12365;43.554;1.388;2022-10-16T11:00:57;8.98;;;2.50;;
24233;SDS011;12365;43.554;1.388;2022-10-16T11:06:43;7.30;;;2.70;;
24233;SDS011;12365;43.554;1.388;2022-10-16T11:12:01;5.05;;;2.15;;
24233;SDS011;12365;43.554;1.388;2022-10-16T11:14:48;6.10;;;2.45;;
24233;SDS011;12365;43.554;1.388;2022-10-16T11:17:25;7.32;;;2.40;;
24233;SDS011;12365;43.554;1.388;2022-10-16T11:20:28;8.05;;;2.55;;
24233;SDS011;12365;43.554;1.388;2022-10-16T11:23:00;8.30;;;3.15;;
24233;SDS011;12365;43.554;1.388;2022-10-16T11:25:40;6.40;;;2.70;;
24233;SDS011;12365;43.554;1.388;2022-10-16T11:36:33;5.05;;;2.08;;
24233;SDS011;12365;43.554;1.388;2022-10-16T11:41:51;6.68;;;2.47;;
24233;SDS011;12365;43.554;1.388;2022-10-16T11:44:33;7.15;;;2.45;;
24233;SDS011;12365;43.554;1.388;2022-10-16T11:47:33;11.88;;;2.70;;
24233;SDS011;12365;43.554;1.388;2022-10-16T11:55:52;7.78;;;2.38;;
24233;SDS011;12365;43.554;1.388;2022-10-16T12:03:58;12.98;;;2.60;;
24233;SDS011;12365;43.554;1.388;2022-10-16T12:09:17;4.82;;;2.40;;
24233;SDS011;12365;43.554;1.388;2022-10-16T12:11:59;9.85;;;2.50;;
24233;SDS011;12365;43.554;1.388;2022-10-16T12:19:26;20.88;;;2.40;;
24233;SDS011;12365;43.554;1.388;2022-10-16T12:21:57;8.45;;;2.38;;
24233;SDS011;12365;43.554;1.388;2022-10-16T12:24:38;5.75;;;2.08;;
24233;SDS011;12365;43.554;1.388;2022-10-16T12:30:01;11.60;;;2.28;;
24233;SDS011;12365;43.554;1.388;2022-10-16T12:32:34;6.10;;;2.00;;
24233;SDS011;12365;43.554;1.388;2022-10-16T12:35:02;13.98;;;2.50;;
24233;SDS011;12365;43.554;1.388;2022-10-16T12:37:38;8.00;;;2.00;;
24233;SDS011;12365;43.554;1.388;2022-10-16T12:40:23;6.68;;;1.80;;
24233;SDS011;12365;43.554;1.388;2022-10-16T12:42:57;8.77;;;1.80;;
24233;SDS011;12365;43.554;1.388;2022-10-16T12:45:23;4.13;;;2.00;;
24233;SDS011;12365;43.554;1.388;2022-10-16T12:47:52;9.13;;;1.85;;
24233;SDS011;12365;43.554;1.388;2022-10-16T12:50:26;8.63;;;2.13;;
24233;SDS011;12365;43.554;1.388;2022-10-16T12:53:00;6.25;;;1.95;;
24233;SDS011;12365;43.554;1.388;2022-10-16T12:55:26;7.03;;;2.13;;
24233;SDS011;12365;43.554;1.388;2022-10-16T13:00:50;6.32;;;1.55;;
24233;SDS011;12365;43.554;1.388;2022-10-16T13:17:11;7.85;;;1.70;;
24233;SDS011;12365;43.554;1.388;2022-10-16T13:27:55;6.57;;;1.55;;
24233;SDS011;12365;43.554;1.388;2022-10-16T13:30:28;3.30;;;1.38;;
24233;SDS011;12365;43.554;1.388;2022-10-16T13:33:06;5.20;;;1.80;;
24233;SDS011;12365;43.554;1.388;2022-10-16T13:35:45;6.78;;;1.77;;
24233;SDS011;12365;43.554;1.388;2022-10-16T13:38:17;4.13;;;1.20;;
24233;SDS011;12365;43.554;1.388;2022-10-16T13:40:49;6.90;;;1.60;;
24233;SDS011;12365;43.554;1.388;2022-10-16T13:46:10;9.63;;;1.58;;
24233;SDS011;12365;43.554;1.388;2022-10-16T13:48:43;6.95;;;1.50;;
24233;SDS011;12365;43.554;1.388;2022-10-16T13:51:14;4.00;;;1.40;;
24233;SDS011;12365;43.554;1.388;2022-10-16T13:53:41;8.52;;;1.70;;
24233;SDS011;12365;43.554;1.388;2022-10-16T13:56:09;4.60;;;1.58;;
24233;SDS011;12365;43.554;1.388;2022-10-16T13:58:37;6.03;;;1.70;;
24233;SDS011;12365;43.554;1.388;2022-10-16T14:01:04;5.32;;;1.60;;
24233;SDS011;12365;43.554;1.388;2022-10-16T14:03:39;3.97;;;1.30;;
24233;SDS011;12365;43.554;1.388;2022-10-16T14:06:06;5.20;;;1.38;;
24233;SDS011;12365;43.554;1.388;2022-10-16T14:08:40;5.78;;;1.52;;
24233;SDS011;12365;43.554;1.388;2022-10-16T14:11:08;4.07;;;1.50;;
24233;SDS011;12365;43.554;1.388;2022-10-16T14:13:36;3.83;;;1.20;;
24233;SDS011;12365;43.554;1.388;2022-10-16T14:16:07;7.35;;;1.40;;
24233;SDS011;12365;43.554;1.388;2022-10-16T14:18:40;3.65;;;1.30;;
24233;SDS011;12365;43.554;1.388;2022-10-16T14:21:06;6.60;;;1.67;;
24233;SDS011;12365;43.554;1.388;2022-10-16T14:23:37;5.05;;;1.30;;
24233;SDS011;12365;43.554;1.388;2022-10-16T14:28:36;6.88;;;1.67;;
24233;SDS011;12365;43.554;1.388;2022-10-16T14:31:14;8.88;;;1.40;;
24233;SDS011;12365;43.554;1.388;2022-10-16T14:33:49;4.07;;;1.40;;
24233;SDS011;12365;43.554;1.388;2022-10-16T14:36:15;6.05;;;1.42;;
24233;SDS011;12365;43.554;1.388;2022-10-16T14:38:59;13.90;;;1.70;;
24233;SDS011;12365;43.554;1.388;2022-10-16T14:41:43;4.93;;;1.63;;
24233;SDS011;12365;43.554;1.388;2022-10-16T14:44:11;5.32;;;1.45;;
24233;SDS011;12365;43.554;1.388;2022-10-16T14:46:38;5.05;;;1.52;;
24233;SDS011;12365;43.554;1.388;2022-10-16T14:51:35;4.63;;;1.27;;
24233;SDS011;12365;43.554;1.388;2022-10-16T14:54:01;5.43;;;1.40;;
24233;SDS011;12365;43.554;1.388;2022-10-16T14:56:29;4.45;;;1.48;;
24233;SDS011;12365;43.554;1.388;2022-10-16T14:58:56;7.10;;;1.40;;
24233;SDS011;12365;43.554;1.388;2022-10-16T15:01:22;4.57;;;1.45;;
24233;SDS011;12365;43.554;1.388;2022-10-16T15:03:47;4.75;;;1.50;;
24233;SDS011;12365;43.554;1.388;2022-10-16T15:06:14;4.75;;;1.42;;
24233;SDS011;12365;43.554;1.388;2022-10-16T15:08:40;5.07;;;1.50;;
24233;SDS011;12365;43.554;1.388;2022-10-16T15:11:13;5.28;;;1.50;;
24233;SDS011;12365;43.554;1.388;2022-10-16T15:13:41;6.95;;;1.55;;
24233;SDS011;12365;43.554;1.388;2022-10-16T15:16:09;7.00;;;2.17;;
24233;SDS011;12365;43.554;1.388;2022-10-16T15:18:36;9.52;;;1.58;;
24233;SDS011;12365;43.554;1.388;2022-10-16T15:21:02;4.88;;;1.40;;
24233;SDS011;12365;43.554;1.388;2022-10-16T15:23:27;5.13;;;1.70;;
24233;SDS011;12365;43.554;1.388;2022-10-16T15:25:53;4.00;;;1.30;;
24233;SDS011;12365;43.554;1.388;2022-10-16T15:28:21;5.43;;;1.60;;
24233;SDS011;12365;43.554;1.388;2022-10-16T15:30:51;5.60;;;1.40;;
24233;SDS011;12365;43.554;1.388;2022-10-16T15:35:49;7.55;;;1.83;;
24233;SDS011;12365;43.554;1.388;2022-10-16T15:38:15;6.75;;;1.50;;
24233;SDS011;12365;43.554;1.388;2022-10-16T15:40:42;6.78;;;1.80;;
24233;SDS011;12365;43.554;1.388;2022-10-16T15:43:08;9.15;;;1.52;;
24233;SDS011;12365;43.554;1.388;2022-10-16T15:45:34;5.22;;;1.95;;
24233;SDS011;12365;43.554;1.388;2022-10-16T15:47:59;3.78;;;1.30;;
24233;SDS011;12365;43.554;1.388;2022-10-16T15:50:25;3.60;;;1.42;;
24233;SDS011;12365;43.554;1.388;2022-10-16T15:52:50;4.32;;;1.50;;
24233;SDS011;12365;43.554;1.388;2022-10-16T15:55:16;7.53;;;1.80;;
24233;SDS011;12365;43.554;1.388;2022-10-16T15:57:43;5.55;;;1.63;;
24233;SDS011;12365;43.554;1.388;2022-10-16T16:00:11;5.70;;;1.60;;
24233;SDS011;12365;43.554;1.388;2022-10-16T16:02:39;7.47;;;1.95;;
24233;SDS011;12365;43.554;1.388;2022-10-16T16:05:06;5.03;;;1.63;;
24233;SDS011;12365;43.554;1.388;2022-10-16T16:07:36;9.40;;;1.73;;
24233;SDS011;12365;43.554;1.388;2022-10-16T16:10:03;4.93;;;1.77;;
24233;SDS011;12365;43.554;1.388;2022-10-16T16:12:30;5.55;;;1.55;;
24233;SDS011;12365;43.554;1.388;2022-10-16T16:14:55;8.52;;;1.58;;
24233;SDS011;12365;43.554;1.388;2022-10-16T16:17:21;9.32;;;1.80;;
24233;SDS011;12365;43.554;1.388;2022-10-16T16:19:46;7.80;;;1.92;;
24233;SDS011;12365;43.554;1.388;2022-10-16T16:22:12;6.30;;;1.50;;
24233;SDS011;12365;43.554;1.388;2022-10-16T16:24:37;5.57;;;1.40;;
24233;SDS011;12365;43.554;1.388;2022-10-16T16:27:03;10.40;;;1.90;;
24233;SDS011;12365;43.554;1.388;2022-10-16T16:29:28;7.03;;;2.05;;
24233;SDS011;12365;43.554;1.388;2022-10-16T16:31:53;10.10;;;1.65;;
24233;SDS011;12365;43.554;1.388;2022-10-16T16:34:23;8.43;;;2.10;;
24233;SDS011;12365;43.554;1.388;2022-10-16T16:36:49;7.88;;;1.65;;
24233;SDS011;12365;43.554;1.388;2022-10-16T16:39:15;5.82;;;2.00;;
24233;SDS011;12365;43.554;1.388;2022-10-16T16:41:40;5.53;;;1.80;;
24233;SDS011;12365;43.554;1.388;2022-10-16T16:44:07;8.20;;;1.83;;
24233;SDS011;12365;43.554;1.388;2022-10-16T16:46:35;6.00;;;1.85;;
24233;SDS011;12365;43.554;1.388;2022-10-16T16:49:02;6.20;;;1.77;;
24233;SDS011;12365;43.554;1.388;2022-10-16T16:51:28;6.63;;;1.60;;
24233;SDS011;12365;43.554;1.388;2022-10-16T16:53:54;6.88;;;1.63;;
24233;SDS011;12365;43.554;1.388;2022-10-16T16:56:20;7.47;;;1.85;;
24233;SDS011;12365;43.554;1.388;2022-10-16T16:58:48;7.03;;;2.00;;
24233;SDS011;12365;43.554;1.388;2022-10-16T17:01:14;8.05;;;2.00;;
24233;SDS011;12365;43.554;1.388;2022-10-16T17:03:42;6.82;;;1.73;;
24233;SDS011;12365;43.554;1.388;2022-10-16T17:06:12;5.55;;;1.75;;
24233;SDS011;12365;43.554;1.388;2022-10-16T17:08:39;7.38;;;1.90;;
24233;SDS011;12365;43.554;1.388;2022-10-16T17:11:05;5.07;;;1.75;;